createdAt,value
2022-08-03T00:00:37.409Z,49.01
2022-08-03T00:03:06.053Z,49.25
2022-08-03T00:05:35.836Z,49.67
2022-08-03T00:08:04.669Z,50.10
2022-08-03T00:10:35.289Z,50.78
2022-08-03T00:13:03.700Z,51.65
2022-08-03T00:15:31.992Z,52.00
2022-08-03T00:18:00.574Z,51.88
2022-08-03T00:20:28.870Z,53.11
2022-08-03T00:22:58.743Z,53.33
2022-08-03T00:25:27.527Z,53.50
2022-08-03T00:27:55.995Z,53.44
2022-08-03T00:30:26.861Z,53.91
2022-08-03T00:33:00.217Z,54.00
2022-08-03T00:35:36.843Z,53.76
2022-08-03T00:38:18.735Z,54.78
2022-08-03T00:40:47.663Z,55.09
2022-08-03T00:43:16.005Z,55.25
2022-08-03T00:45:44.941Z,56.23
2022-08-03T00:48:29.483Z,56.69
2022-08-03T00:51:02.369Z,56.42
2022-08-03T00:53:33.449Z,55.98
2022-08-03T00:56:01.838Z,54.99
2022-08-03T00:58:30.609Z,54.55
2022-08-03T01:00:59.153Z,54.34
2022-08-03T01:03:27.720Z,54.51
2022-08-03T01:06:05.530Z,54.37
2022-08-03T01:08:45.732Z,54.10
2022-08-03T01:11:22.272Z,54.22
2022-08-03T01:14:17.870Z,54.56
2022-08-03T01:16:58.947Z,54.97
2022-08-03T01:19:43.713Z,55.20
2022-08-03T01:22:24.819Z,55.41
2022-08-03T01:25:04.892Z,55.92
2022-08-03T01:27:53.609Z,55.57
2022-08-03T01:30:26.085Z,55.93
2022-08-03T01:33:02.009Z,56.87
2022-08-03T01:35:38.863Z,56.91
2022-08-03T01:38:13.011Z,57.36
2022-08-03T01:40:42.931Z,56.16
2022-08-03T01:44:27.043Z,55.06
2022-08-03T01:46:08.786Z,55.29
2022-08-03T01:48:39.627Z,55.40
2022-08-03T01:51:09.386Z,54.86
2022-08-03T01:53:40.130Z,54.83
2022-08-03T01:56:09.698Z,55.13
2022-08-03T01:58:40.844Z,55.56
2022-08-03T02:01:11.444Z,55.16
2022-08-03T02:03:58.108Z,55.71
2022-08-03T02:06:59.691Z,55.59
2022-08-03T02:09:22.785Z,55.49
2022-08-03T02:11:53.392Z,55.95
2022-08-03T02:14:23.478Z,55.69
2022-08-03T02:16:54.123Z,55.44
2022-08-03T02:19:24.005Z,55.84
2022-08-03T02:21:57.023Z,56.46
2022-08-03T02:24:30.055Z,56.66
2022-08-03T02:27:00.013Z,56.59
2022-08-03T02:29:38.661Z,56.86
2022-08-03T02:32:14.520Z,57.21
2022-08-03T02:34:48.950Z,57.61
2022-08-03T02:37:20.982Z,57.14
2022-08-03T02:39:53.317Z,56.91
2022-08-03T02:42:24.525Z,57.36
2022-08-03T02:44:56.948Z,57.05
2022-08-03T02:47:29.187Z,57.97
2022-08-03T02:50:18.852Z,60.04
2022-08-03T02:52:49.281Z,60.82
2022-08-03T02:55:18.646Z,61.86
2022-08-03T02:57:48.613Z,62.52
2022-08-03T03:00:27.404Z,63.08
2022-08-03T03:03:00.493Z,63.54
2022-08-03T03:05:52.960Z,63.55
2022-08-03T03:08:26.150Z,63.13
2022-08-03T03:11:01.503Z,63.45
2022-08-03T03:13:31.851Z,63.58
2022-08-03T03:16:03.947Z,63.37
2022-08-03T03:18:35.522Z,63.41
2022-08-03T03:21:05.807Z,63.69
2022-08-03T03:23:39.028Z,63.91
2022-08-03T03:26:08.546Z,63.99
2022-08-03T03:28:38.157Z,63.64
2022-08-03T03:31:07.466Z,63.56
2022-08-03T03:33:38.687Z,64.21
2022-08-03T03:36:08.532Z,64.32
2022-08-03T03:38:36.876Z,64.85
2022-08-03T03:41:06.243Z,64.91
2022-08-03T03:43:34.629Z,64.99
2022-08-03T03:46:03.762Z,65.29
2022-08-03T03:48:32.320Z,65.00
2022-08-03T03:51:02.520Z,65.07
2022-08-03T03:53:30.960Z,65.19
2022-08-03T03:56:02.549Z,65.58
2022-08-03T03:58:33.412Z,65.36
2022-08-03T04:01:02.427Z,65.49
2022-08-03T04:03:31.083Z,65.47
2022-08-03T04:06:18.483Z,65.40
2022-08-03T04:09:05.160Z,65.22
2022-08-03T04:11:38.843Z,65.29
2022-08-03T04:14:13.622Z,64.86
2022-08-03T04:16:47.453Z,64.38
2022-08-03T04:19:23.284Z,64.57
2022-08-03T04:21:57.536Z,65.19
2022-08-03T04:24:31.995Z,65.64
2022-08-03T04:27:02.205Z,66.31
2022-08-03T04:29:32.308Z,66.42
2022-08-03T04:32:03.273Z,66.62
2022-08-03T04:34:32.355Z,66.28
2022-08-03T04:37:07.322Z,66.54
2022-08-03T04:39:37.267Z,66.44
2022-08-03T04:42:09.227Z,66.28
2022-08-03T04:44:42.252Z,66.43
2022-08-03T04:47:10.824Z,65.54
2022-08-03T04:49:40.147Z,65.75
2022-08-03T04:52:10.923Z,66.04
2022-08-03T04:54:44.374Z,65.67
2022-08-03T04:57:23.166Z,65.71
2022-08-03T05:00:01.408Z,66.40
2022-08-03T05:02:33.504Z,66.61
2022-08-03T05:05:01.783Z,66.68
2022-08-03T05:07:36.333Z,66.88
2022-08-03T05:10:09.146Z,67.27
2022-08-03T05:12:44.365Z,67.57
2022-08-03T05:15:13.238Z,67.52
2022-08-03T05:17:41.893Z,67.51
2022-08-03T05:20:12.100Z,67.74
2022-08-03T05:22:41.971Z,67.73
2022-08-03T05:25:17.421Z,68.30
2022-08-03T05:27:48.517Z,68.17
2022-08-03T05:30:26.758Z,68.34
2022-08-03T05:33:03.592Z,67.60
2022-08-03T05:35:57.366Z,67.34
2022-08-03T05:38:23.950Z,67.10
2022-08-03T05:41:22.972Z,66.27
2022-08-03T05:43:46.741Z,66.06
2022-08-03T05:46:15.309Z,66.54
2022-08-03T05:48:44.619Z,66.53
2022-08-03T05:51:13.476Z,66.44
2022-08-03T05:53:44.273Z,66.46
2022-08-03T05:56:15.975Z,65.83
2022-08-03T05:58:47.228Z,65.92
2022-08-03T06:01:16.481Z,65.23
2022-08-03T06:03:45.407Z,65.34
2022-08-03T06:06:13.815Z,64.87
2022-08-03T06:08:45.181Z,65.20
2022-08-03T06:11:14.263Z,64.78
2022-08-03T06:13:42.715Z,64.90
2022-08-03T06:16:11.569Z,64.47
2022-08-03T06:18:41.230Z,64.65
2022-08-03T06:21:15.352Z,64.94
2022-08-03T06:23:54.702Z,64.80
2022-08-03T06:26:25.978Z,64.56
2022-08-03T06:28:54.926Z,65.32
2022-08-03T06:31:33.120Z,65.04
2022-08-03T06:34:33.864Z,64.86
2022-08-03T06:36:57.441Z,64.80
2022-08-03T06:39:31.327Z,63.79
2022-08-03T06:41:59.735Z,63.92
2022-08-03T06:44:28.382Z,63.85
2022-08-03T06:46:56.817Z,62.84
2022-08-03T06:49:25.550Z,62.48
2022-08-03T06:52:04.976Z,62.73
2022-08-03T06:54:36.977Z,63.10
2022-08-03T06:57:08.200Z,62.00
2022-08-03T07:00:09.790Z,60.40
2022-08-03T07:02:28.266Z,61.22
2022-08-03T07:04:57.757Z,62.08
2022-08-03T07:07:26.279Z,61.05
2022-08-03T07:09:57.565Z,59.91
2022-08-03T07:12:31.015Z,60.09
2022-08-03T07:15:02.868Z,60.56
2022-08-03T07:17:34.660Z,59.19
2022-08-03T07:20:07.181Z,58.92
2022-08-03T07:22:36.246Z,57.81
2022-08-03T07:25:07.300Z,58.46
2022-08-03T07:27:35.912Z,58.94
2022-08-03T07:30:07.497Z,59.66
2022-08-03T07:32:35.804Z,59.64
2022-08-03T07:35:24.441Z,57.96
2022-08-03T07:37:54.323Z,58.08
2022-08-03T07:40:30.607Z,58.77
2022-08-03T07:43:00.284Z,58.32
2022-08-03T07:45:28.811Z,57.99
2022-08-03T07:47:57.249Z,57.79
2022-08-03T07:50:25.892Z,57.42
2022-08-03T07:52:56.075Z,57.21
2022-08-03T07:55:27.983Z,56.36
2022-08-03T07:58:09.325Z,56.79
2022-08-03T08:00:38.091Z,56.87
2022-08-03T08:03:06.666Z,56.59
2022-08-03T08:05:35.126Z,55.57
2022-08-03T08:08:04.220Z,57.00
2022-08-03T08:10:34.381Z,55.56
2022-08-03T08:13:03.283Z,55.95
2022-08-03T08:15:33.265Z,55.10
2022-08-03T08:18:45.828Z,53.67
2022-08-03T08:21:14.434Z,53.08
2022-08-03T08:23:46.188Z,52.85
2022-08-03T08:26:23.591Z,53.83
2022-08-03T08:28:52.863Z,52.44
2022-08-03T08:31:21.500Z,50.23
2022-08-03T08:34:05.662Z,49.97
2022-08-03T08:36:34.442Z,49.42
2022-08-03T08:39:03.251Z,50.84
2022-08-03T08:41:34.732Z,48.97
2022-08-03T08:44:03.227Z,49.18
2022-08-03T08:46:34.604Z,49.88
2022-08-03T08:49:03.292Z,48.14
2022-08-03T08:51:59.259Z,48.21
2022-08-03T08:54:27.176Z,48.41
2022-08-03T08:57:00.127Z,47.17
2022-08-03T08:59:47.712Z,46.59
2022-08-03T09:02:17.333Z,46.89
2022-08-03T09:04:48.727Z,46.75
2022-08-03T09:07:20.460Z,46.07
2022-08-03T09:10:05.322Z,47.09
2022-08-03T09:12:45.221Z,47.28
2022-08-03T09:15:26.689Z,49.19
2022-08-03T09:17:57.684Z,47.69
2022-08-03T09:20:30.498Z,47.43
2022-08-03T09:23:01.364Z,45.13
2022-08-03T09:25:32.731Z,45.35
2022-08-03T09:28:11.956Z,44.69
2022-08-03T09:30:43.622Z,46.21
2022-08-03T09:33:15.429Z,45.98
2022-08-03T09:35:53.567Z,46.98
2022-08-03T09:38:26.187Z,47.09
2022-08-03T09:40:59.436Z,46.77
2022-08-03T09:43:31.010Z,46.52
2022-08-03T09:46:07.520Z,46.19
2022-08-03T09:48:37.294Z,43.81
2022-08-03T09:51:13.574Z,44.38
2022-08-03T09:54:00.324Z,43.45
2022-08-03T09:56:44.764Z,43.38
2022-08-03T09:59:25.034Z,42.07
2022-08-03T10:01:55.082Z,43.01
2022-08-03T10:04:24.183Z,42.41
2022-08-03T10:07:06.471Z,41.78
2022-08-03T10:09:35.133Z,43.00
2022-08-03T10:12:11.535Z,44.30
2022-08-03T10:14:45.283Z,42.53
2022-08-03T10:17:14.113Z,41.63
2022-08-03T10:19:42.609Z,42.69
2022-08-03T10:22:15.498Z,42.20
2022-08-03T10:24:54.196Z,40.58
2022-08-03T10:27:25.074Z,38.74
2022-08-03T10:29:57.216Z,39.17
2022-08-03T10:32:32.203Z,37.99
2022-08-03T10:35:13.018Z,36.68
2022-08-03T10:37:58.949Z,36.36
2022-08-03T10:40:49.400Z,37.75
2022-08-03T10:43:23.248Z,37.21
2022-08-03T10:45:53.494Z,37.36
2022-08-03T10:48:22.766Z,36.96
2022-08-03T10:56:01.714Z,35.74
2022-08-03T10:58:57.448Z,36.45
2022-08-03T11:01:58.823Z,36.16
2022-08-03T11:04:30.823Z,35.36
2022-08-03T11:07:22.406Z,36.33
2022-08-03T11:09:52.860Z,35.65
2022-08-03T11:12:30.855Z,35.38
2022-08-03T11:15:03.080Z,35.04
2022-08-03T11:17:45.765Z,35.32
2022-08-03T11:20:14.860Z,35.01
2022-08-03T11:22:54.317Z,35.22
2022-08-03T11:25:53.598Z,35.09
2022-08-03T11:28:27.788Z,34.86
2022-08-03T11:30:56.854Z,36.72
2022-08-03T11:33:33.018Z,34.41
2022-08-03T11:36:03.352Z,34.23
2022-08-03T11:38:31.709Z,35.03
2022-08-03T11:41:02.696Z,34.17
2022-08-03T11:43:49.004Z,34.33
2022-08-03T11:46:28.521Z,33.79
2022-08-03T11:49:10.743Z,34.21
2022-08-03T11:51:40.544Z,35.27
2022-08-03T11:54:09.497Z,36.20
2022-08-03T11:56:50.020Z,34.79
2022-08-03T11:59:22.288Z,34.53
2022-08-03T12:01:51.868Z,35.34
2022-08-03T12:04:21.645Z,36.32
2022-08-03T12:07:03.660Z,35.35
2022-08-03T12:09:34.404Z,35.97
2022-08-03T12:12:02.993Z,34.80
2022-08-03T12:14:48.601Z,33.64
2022-08-03T12:17:20.271Z,32.38
2022-08-03T12:19:50.334Z,32.18
2022-08-03T12:22:32.489Z,31.52
2022-08-03T12:25:01.249Z,31.29
2022-08-03T12:27:29.966Z,30.37
2022-08-03T12:30:00.968Z,30.29
2022-08-03T12:32:30.880Z,29.53
2022-08-03T12:35:04.349Z,29.73
2022-08-03T12:37:33.598Z,30.34
2022-08-03T12:40:10.264Z,30.23
2022-08-03T12:42:41.428Z,30.33
2022-08-03T12:45:26.766Z,30.25
2022-08-03T12:47:57.126Z,30.44
2022-08-03T12:50:31.308Z,30.06
2022-08-03T12:53:01.865Z,29.42
2022-08-03T12:55:57.399Z,29.11
2022-08-03T12:58:35.032Z,29.18
2022-08-03T13:01:10.516Z,29.46
2022-08-03T13:03:49.691Z,28.97
2022-08-03T13:06:26.537Z,28.87
2022-08-03T13:09:06.486Z,28.49
2022-08-03T13:11:47.645Z,28.79
2022-08-03T13:14:24.377Z,27.37
2022-08-03T13:16:52.812Z,27.65
2022-08-03T13:19:21.257Z,26.49
2022-08-03T13:22:03.365Z,27.11
2022-08-03T13:24:34.224Z,27.26
2022-08-03T13:28:01.990Z,26.72
2022-08-03T13:29:53.975Z,26.41
2022-08-03T13:32:22.617Z,26.46
2022-08-03T13:34:51.924Z,26.28
2022-08-03T13:37:22.291Z,26.05
2022-08-03T13:40:00.213Z,26.43
2022-08-03T13:42:31.715Z,24.75
2022-08-03T13:45:00.366Z,25.78
2022-08-03T13:47:29.663Z,24.96
2022-08-03T13:50:01.437Z,24.64
2022-08-03T13:52:35.326Z,25.46
2022-08-03T13:55:05.581Z,25.40
2022-08-03T13:58:19.027Z,24.98
2022-08-03T14:00:27.005Z,23.88
2022-08-03T14:03:14.917Z,24.49
2022-08-03T14:05:44.555Z,24.45
2022-08-03T14:08:14.556Z,24.92
2022-08-03T14:10:45.690Z,24.37
2022-08-03T14:13:17.418Z,24.38
2022-08-03T14:15:50.894Z,24.02
2022-08-03T14:18:28.432Z,22.86
2022-08-03T14:21:04.989Z,22.33
2022-08-03T14:23:38.236Z,22.78
2022-08-03T14:26:07.867Z,22.79
2022-08-03T14:28:37.264Z,22.51
2022-08-03T14:32:10.193Z,23.23
2022-08-03T14:33:54.410Z,23.11
2022-08-03T14:36:22.743Z,22.64
2022-08-03T14:38:52.742Z,21.94
2022-08-03T14:41:21.467Z,20.60
2022-08-03T14:44:01.293Z,20.95
2022-08-03T14:46:31.035Z,21.53
2022-08-03T14:50:29.395Z,21.39
2022-08-03T14:51:51.239Z,21.05
2022-08-03T14:54:23.572Z,22.31
2022-08-03T14:56:52.572Z,21.01
2022-08-03T14:59:21.144Z,20.37
2022-08-03T15:02:02.308Z,20.92
2022-08-03T15:04:32.333Z,21.23
2022-08-03T15:07:01.469Z,19.81
2022-08-03T15:09:31.506Z,19.97
2022-08-03T15:12:00.450Z,19.44
2022-08-03T15:14:33.194Z,19.26
2022-08-03T15:17:03.411Z,19.59
2022-08-03T15:20:00.302Z,19.69
2022-08-03T15:22:25.386Z,19.43
2022-08-03T15:26:31.583Z,19.02
2022-08-03T15:28:03.616Z,19.22
2022-08-03T15:30:36.092Z,19.19
2022-08-03T15:33:05.051Z,19.21
2022-08-03T15:35:33.392Z,18.58
2022-08-03T15:38:04.972Z,18.68
2022-08-03T15:40:37.235Z,18.57
2022-08-03T15:43:05.841Z,18.22
2022-08-03T15:45:35.452Z,18.39
2022-08-03T15:48:06.210Z,19.58
2022-08-03T15:50:34.788Z,18.64
2022-08-03T15:53:03.372Z,18.47
2022-08-03T15:55:32.105Z,18.53
2022-08-03T15:59:04.506Z,18.06
2022-08-03T16:00:50.126Z,18.47
2022-08-03T16:03:18.458Z,17.75
2022-08-03T16:05:47.004Z,17.26
2022-08-03T16:08:15.503Z,17.48
2022-08-03T16:10:44.077Z,17.06
2022-08-03T16:13:13.972Z,17.35
2022-08-03T16:15:42.432Z,16.74
2022-08-03T16:18:10.872Z,16.79
2022-08-03T16:20:39.569Z,17.71
2022-08-03T16:23:11.413Z,17.86
2022-08-03T16:25:41.493Z,17.44
2022-08-03T16:28:14.716Z,17.53
2022-08-03T16:30:47.828Z,17.01
2022-08-03T16:33:17.812Z,17.43
2022-08-03T16:35:46.974Z,16.81
2022-08-03T16:38:19.080Z,16.40
2022-08-03T16:40:51.748Z,16.60
2022-08-03T16:43:23.341Z,16.27
2022-08-03T16:45:53.343Z,16.11
2022-08-03T16:48:22.081Z,16.40
2022-08-03T16:50:50.797Z,17.02
2022-08-03T16:53:33.705Z,16.70
2022-08-03T16:56:10.705Z,16.99
2022-08-03T16:58:42.046Z,16.45
2022-08-03T17:01:22.350Z,16.26
2022-08-03T17:04:01.393Z,17.13
2022-08-03T17:06:36.128Z,16.01
2022-08-03T17:09:08.893Z,15.40
2022-08-03T17:11:46.845Z,15.44
2022-08-03T17:14:21.836Z,15.82
2022-08-03T17:16:54.619Z,16.62
2022-08-03T17:19:26.264Z,15.94
2022-08-03T17:22:04.124Z,16.29
2022-08-03T17:24:41.142Z,16.31
2022-08-03T17:28:42.444Z,15.86
2022-08-03T17:30:09.846Z,16.48
2022-08-03T17:32:56.654Z,15.28
2022-08-03T17:35:34.397Z,17.02
2022-08-03T17:38:10.420Z,16.90
2022-08-03T17:40:50.216Z,17.11
2022-08-03T17:44:12.789Z,17.37
2022-08-03T17:46:10.906Z,16.94
2022-08-03T17:48:42.485Z,17.04
2022-08-03T17:51:17.847Z,16.63
2022-08-03T17:53:53.881Z,17.37
2022-08-03T17:56:44.995Z,17.06
2022-08-03T17:59:52.437Z,17.50
2022-08-03T18:02:52.103Z,17.30
2022-08-03T18:05:22.993Z,17.67
2022-08-03T18:08:17.676Z,18.12
2022-08-03T18:10:49.843Z,18.47
2022-08-03T18:13:43.461Z,18.21
2022-08-03T18:16:26.067Z,19.04
2022-08-03T18:19:01.218Z,19.17
2022-08-03T18:22:02.984Z,19.43
2022-08-03T18:24:30.415Z,20.44
2022-08-03T18:27:02.459Z,19.77
2022-08-03T18:29:33.710Z,20.31
2022-08-03T18:34:53.604Z,21.08
2022-08-03T18:37:26.078Z,21.58
2022-08-03T18:39:58.311Z,21.57
2022-08-03T18:42:28.476Z,21.67
2022-08-03T18:45:54.951Z,21.84
2022-08-03T18:48:00.230Z,21.83
2022-08-03T18:50:36.020Z,22.26
2022-08-03T18:53:19.467Z,22.46
2022-08-03T18:56:01.513Z,22.67
2022-08-03T18:58:52.295Z,22.49
2022-08-03T19:01:59.782Z,22.61
2022-08-03T19:04:27.225Z,22.82
2022-08-03T19:07:03.184Z,23.24
2022-08-03T19:09:44.257Z,23.33
2022-08-03T19:12:26.624Z,23.46
2022-08-03T19:15:05.736Z,23.56
2022-08-03T19:17:43.637Z,23.70
2022-08-03T19:20:25.180Z,23.92
2022-08-03T19:22:55.128Z,23.88
2022-08-03T19:25:34.356Z,24.01
2022-08-03T19:28:06.109Z,24.09
2022-08-03T19:30:38.732Z,24.42
2022-08-03T19:33:12.367Z,23.94
2022-08-03T19:35:51.654Z,24.31
2022-08-03T19:38:29.024Z,24.66
2022-08-03T19:41:03.501Z,25.16
2022-08-03T19:43:53.493Z,24.80
2022-08-03T19:46:30.273Z,25.22
2022-08-03T19:49:10.547Z,25.35
2022-08-03T19:52:01.744Z,25.52
2022-08-03T19:54:45.728Z,26.09
2022-08-03T19:57:26.857Z,26.20
2022-08-03T19:59:57.907Z,26.36
2022-08-03T20:02:29.653Z,26.58
2022-08-03T20:05:00.587Z,25.79
2022-08-03T20:07:32.339Z,26.17
2022-08-03T20:10:04.653Z,25.92
2022-08-03T20:12:39.362Z,25.41
2022-08-03T20:15:10.649Z,25.01
2022-08-03T20:17:55.584Z,25.23
2022-08-03T20:20:29.734Z,24.75
2022-08-03T20:23:00.655Z,24.93
2022-08-03T20:25:38.885Z,24.95
2022-08-03T20:28:15.137Z,25.08
2022-08-03T20:30:46.461Z,25.87
2022-08-03T20:33:18.253Z,25.79
2022-08-03T20:35:49.633Z,25.57
2022-08-03T20:38:19.750Z,25.99
2022-08-03T20:40:53.569Z,26.33
2022-08-03T20:43:23.900Z,27.22
2022-08-03T20:46:00.971Z,27.24
2022-08-03T20:48:43.921Z,27.84
2022-08-03T20:51:19.895Z,27.42
2022-08-03T20:54:03.045Z,27.40
2022-08-03T20:56:34.655Z,28.45
2022-08-03T20:59:07.353Z,28.36
2022-08-03T21:01:44.337Z,28.41
2022-08-03T21:04:13.509Z,28.59
2022-08-03T21:09:47.838Z,28.90
2022-08-03T21:12:26.857Z,29.45
2022-08-03T21:13:04.674Z,20.12
2022-08-03T21:13:08.029Z,28.95
2022-08-03T21:15:04.947Z,29.65
2022-08-03T21:17:40.859Z,29.57
2022-08-03T21:20:11.954Z,29.64
2022-08-03T21:22:44.593Z,29.15
2022-08-03T21:25:16.741Z,29.82
2022-08-03T21:27:45.564Z,30.12
2022-08-03T21:30:15.959Z,30.42
2022-08-03T21:32:46.287Z,30.54
2022-08-03T21:35:15.783Z,31.46
2022-08-03T21:37:45.355Z,31.23
2022-08-03T21:40:16.875Z,31.27
2022-08-03T21:42:46.732Z,31.45
2022-08-03T21:45:17.729Z,31.66
2022-08-03T21:47:48.512Z,31.81
2022-08-03T21:50:18.021Z,31.78
2022-08-03T21:52:49.111Z,31.70
2022-08-03T21:55:20.846Z,31.96
2022-08-03T21:57:54.271Z,32.32
2022-08-03T22:00:24.588Z,32.62
2022-08-03T22:02:57.328Z,32.62
2022-08-03T22:05:29.146Z,32.90
2022-08-03T22:08:14.215Z,33.07
2022-08-03T22:10:45.116Z,33.41
2022-08-03T22:13:14.727Z,33.29
2022-08-03T22:15:44.961Z,33.76
2022-08-03T22:18:13.628Z,33.90
2022-08-03T22:20:42.207Z,33.97
2022-08-03T22:23:11.427Z,34.34
2022-08-03T22:25:41.068Z,34.58
2022-08-03T22:28:12.222Z,34.52
2022-08-03T22:30:44.148Z,34.48
2022-08-03T22:33:13.360Z,34.71
2022-08-03T22:35:47.900Z,35.02
2022-08-03T22:38:18.129Z,34.96
2022-08-03T22:40:51.039Z,34.81
2022-08-03T22:43:24.395Z,35.44
2022-08-03T22:46:09.528Z,35.53
2022-08-03T22:48:41.849Z,35.58
2022-08-03T22:51:10.710Z,35.78
2022-08-03T22:53:40.807Z,35.90
2022-08-03T22:56:09.703Z,36.33
2022-08-03T22:58:38.129Z,36.55
2022-08-03T23:01:10.887Z,36.66
2022-08-03T23:04:01.010Z,36.51
2022-08-03T23:06:35.736Z,36.77
2022-08-03T23:09:08.000Z,36.96
2022-08-03T23:11:38.118Z,37.04
2022-08-03T23:14:15.081Z,37.21
2022-08-03T23:16:48.566Z,37.24
2022-08-03T23:19:25.065Z,37.76
2022-08-03T23:22:02.596Z,37.40
2022-08-03T23:24:36.784Z,37.74
2022-08-03T23:27:07.787Z,38.36
2022-08-03T23:29:37.629Z,38.20
2022-08-03T23:32:10.341Z,38.17
2022-08-03T23:34:58.762Z,38.46
2022-08-03T23:37:27.947Z,38.85
2022-08-03T23:39:58.180Z,39.08
2022-08-03T23:42:27.495Z,39.16
2022-08-03T23:44:59.428Z,39.12
2022-08-03T23:47:46.820Z,38.79
2022-08-03T23:50:16.808Z,38.78
2022-08-03T23:52:59.239Z,38.17
2022-08-03T23:55:45.787Z,38.47
2022-08-03T23:58:27.484Z,38.94
